sensor_id;sensor_type;location;lat;lon;timestamp;temperature;humidity
21171;DHT22;10743;52.160;20.910;2022-09-09T00:00:49;31.10;34.70
21171;DHT22;10743;52.160;20.910;2022-09-09T00:03:35;31.10;34.50
21171;DHT22;10743;52.160;20.910;2022-09-09T00:06:17;31.10;34.00
21171;DHT22;10743;52.160;20.910;2022-09-09T00:09:11;31.10;34.00
21171;DHT22;10743;52.160;20.910;2022-09-09T00:11:49;31.00;34.30
21171;DHT22;10743;52.160;20.910;2022-09-09T00:14:26;31.00;34.00
21171;DHT22;10743;52.160;20.910;2022-09-09T00:17:07;31.00;34.20
21171;DHT22;10743;52.160;20.910;2022-09-09T00:19:45;31.00;34.30
21171;DHT22;10743;52.160;20.910;2022-09-09T00:22:21;30.90;34.50
21171;DHT22;10743;52.160;20.910;2022-09-09T00:24:52;30.90;34.70
21171;DHT22;10743;52.160;20.910;2022-09-09T00:27:42;30.80;34.70
21171;DHT22;10743;52.160;20.910;2022-09-09T00:30:26;30.80;34.70
21171;DHT22;10743;52.160;20.910;2022-09-09T00:33:02;30.70;35.10
21171;DHT22;10743;52.160;20.910;2022-09-09T00:35:45;30.70;35.20
21171;DHT22;10743;52.160;20.910;2022-09-09T00:38:33;30.70;35.10
21171;DHT22;10743;52.160;20.910;2022-09-09T00:43:56;30.60;35.00
21171;DHT22;10743;52.160;20.910;2022-09-09T00:50:09;30.50;35.40
21171;DHT22;10743;52.160;20.910;2022-09-09T00:52:52;30.50;35.60
21171;DHT22;10743;52.160;20.910;2022-09-09T00:56:16;30.50;35.80
21171;DHT22;10743;52.160;20.910;2022-09-09T00:59:13;30.50;35.80
21171;DHT22;10743;52.160;20.910;2022-09-09T01:01:54;30.40;35.80
21171;DHT22;10743;52.160;20.910;2022-09-09T01:04:33;30.40;36.00
21171;DHT22;10743;52.160;20.910;2022-09-09T01:07:17;30.30;35.90
21171;DHT22;10743;52.160;20.910;2022-09-09T01:09:57;30.30;35.90
21171;DHT22;10743;52.160;20.910;2022-09-09T01:15:14;30.30;36.30
21171;DHT22;10743;52.160;20.910;2022-09-09T01:18:05;30.30;36.40
21171;DHT22;10743;52.160;20.910;2022-09-09T01:23:41;30.30;36.40
21171;DHT22;10743;52.160;20.910;2022-09-09T01:26:34;30.30;35.90
21171;DHT22;10743;52.160;20.910;2022-09-09T01:29:12;30.30;35.90
21171;DHT22;10743;52.160;20.910;2022-09-09T01:31:55;30.30;35.80
21171;DHT22;10743;52.160;20.910;2022-09-09T01:34:42;30.30;36.30
21171;DHT22;10743;52.160;20.910;2022-09-09T01:37:10;30.30;36.30
21171;DHT22;10743;52.160;20.910;2022-09-09T01:39:41;30.30;36.50
21171;DHT22;10743;52.160;20.910;2022-09-09T01:42:15;30.30;36.30
21171;DHT22;10743;52.160;20.910;2022-09-09T01:44:43;30.20;36.40
21171;DHT22;10743;52.160;20.910;2022-09-09T01:47:11;30.20;36.50
21171;DHT22;10743;52.160;20.910;2022-09-09T01:50:04;30.30;36.80
21171;DHT22;10743;52.160;20.910;2022-09-09T01:52:33;30.20;36.70
21171;DHT22;10743;52.160;20.910;2022-09-09T01:55:05;30.20;36.60
21171;DHT22;10743;52.160;20.910;2022-09-09T01:57:54;30.20;36.40
21171;DHT22;10743;52.160;20.910;2022-09-09T02:00:28;30.30;36.40
21171;DHT22;10743;52.160;20.910;2022-09-09T02:03:11;30.30;36.50
21171;DHT22;10743;52.160;20.910;2022-09-09T02:08:49;30.20;36.70
21171;DHT22;10743;52.160;20.910;2022-09-09T02:11:19;30.30;37.00
21171;DHT22;10743;52.160;20.910;2022-09-09T02:14:04;30.20;36.50
21171;DHT22;10743;52.160;20.910;2022-09-09T02:16:54;30.20;36.80
21171;DHT22;10743;52.160;20.910;2022-09-09T02:19:37;30.20;36.70
21171;DHT22;10743;52.160;20.910;2022-09-09T02:22:24;30.20;36.70
21171;DHT22;10743;52.160;20.910;2022-09-09T02:24:56;30.20;36.90
21171;DHT22;10743;52.160;20.910;2022-09-09T02:27:28;30.20;36.50
21171;DHT22;10743;52.160;20.910;2022-09-09T02:29:56;30.30;36.90
21171;DHT22;10743;52.160;20.910;2022-09-09T02:32:38;30.30;36.70
21171;DHT22;10743;52.160;20.910;2022-09-09T02:35:13;30.20;36.70
21171;DHT22;10743;52.160;20.910;2022-09-09T02:37:44;30.20;36.70
21171;DHT22;10743;52.160;20.910;2022-09-09T02:40:15;30.20;37.10
21171;DHT22;10743;52.160;20.910;2022-09-09T02:42:48;30.20;36.90
21171;DHT22;10743;52.160;20.910;2022-09-09T02:45:20;30.20;37.00
21171;DHT22;10743;52.160;20.910;2022-09-09T02:48:10;30.30;36.90
21171;DHT22;10743;52.160;20.910;2022-09-09T02:51:10;30.20;37.20
21171;DHT22;10743;52.160;20.910;2022-09-09T02:53:50;30.20;37.00
21171;DHT22;10743;52.160;20.910;2022-09-09T02:56:25;30.20;37.30
21171;DHT22;10743;52.160;20.910;2022-09-09T02:58:55;30.20;36.60
21171;DHT22;10743;52.160;20.910;2022-09-09T03:01:24;30.30;37.10
21171;DHT22;10743;52.160;20.910;2022-09-09T03:03:51;30.30;37.00
21171;DHT22;10743;52.160;20.910;2022-09-09T03:06:18;30.30;37.10
21171;DHT22;10743;52.160;20.910;2022-09-09T03:08:50;30.20;36.80
21171;DHT22;10743;52.160;20.910;2022-09-09T03:11:23;30.20;36.60
21171;DHT22;10743;52.160;20.910;2022-09-09T03:13:50;30.30;36.90
21171;DHT22;10743;52.160;20.910;2022-09-09T03:16:19;30.30;36.80
21171;DHT22;10743;52.160;20.910;2022-09-09T03:18:50;30.30;37.00
21171;DHT22;10743;52.160;20.910;2022-09-09T03:21:19;30.30;37.00
21171;DHT22;10743;52.160;20.910;2022-09-09T03:23:48;30.30;37.20
21171;DHT22;10743;52.160;20.910;2022-09-09T03:26:15;30.30;37.20
21171;DHT22;10743;52.160;20.910;2022-09-09T03:28:45;30.30;37.20
21171;DHT22;10743;52.160;20.910;2022-09-09T03:31:16;30.30;37.10
21171;DHT22;10743;52.160;20.910;2022-09-09T03:33:43;30.30;37.00
21171;DHT22;10743;52.160;20.910;2022-09-09T03:36:14;30.30;37.10
21171;DHT22;10743;52.160;20.910;2022-09-09T03:38:41;30.30;37.10
21171;DHT22;10743;52.160;20.910;2022-09-09T03:41:11;30.30;36.90
21171;DHT22;10743;52.160;20.910;2022-09-09T03:43:39;30.30;37.40
21171;DHT22;10743;52.160;20.910;2022-09-09T03:46:06;30.30;36.60
21171;DHT22;10743;52.160;20.910;2022-09-09T03:48:33;30.30;37.10
21171;DHT22;10743;52.160;20.910;2022-09-09T03:51:00;30.30;37.30
21171;DHT22;10743;52.160;20.910;2022-09-09T03:53:30;30.30;37.10
21171;DHT22;10743;52.160;20.910;2022-09-09T03:55:57;30.30;37.10
21171;DHT22;10743;52.160;20.910;2022-09-09T03:58:27;30.40;37.40
21171;DHT22;10743;52.160;20.910;2022-09-09T04:01:07;30.40;37.20
21171;DHT22;10743;52.160;20.910;2022-09-09T04:03:37;30.40;37.30
21171;DHT22;10743;52.160;20.910;2022-09-09T04:06:05;30.40;37.30
21171;DHT22;10743;52.160;20.910;2022-09-09T04:08:34;30.40;37.40
21171;DHT22;10743;52.160;20.910;2022-09-09T04:11:03;30.40;37.20
21171;DHT22;10743;52.160;20.910;2022-09-09T04:13:34;30.40;37.30
21171;DHT22;10743;52.160;20.910;2022-09-09T04:16:05;30.40;37.50
21171;DHT22;10743;52.160;20.910;2022-09-09T04:18:37;30.40;37.50
21171;DHT22;10743;52.160;20.910;2022-09-09T04:21:04;30.40;37.20
21171;DHT22;10743;52.160;20.910;2022-09-09T04:23:34;30.40;37.10
21171;DHT22;10743;52.160;20.910;2022-09-09T04:26:05;30.40;37.30
21171;DHT22;10743;52.160;20.910;2022-09-09T04:28:35;30.40;37.30
21171;DHT22;10743;52.160;20.910;2022-09-09T04:31:18;30.40;37.40
21171;DHT22;10743;52.160;20.910;2022-09-09T04:33:49;30.40;37.00
21171;DHT22;10743;52.160;20.910;2022-09-09T04:36:18;30.40;36.80
21171;DHT22;10743;52.160;20.910;2022-09-09T04:38:47;30.50;37.00
21171;DHT22;10743;52.160;20.910;2022-09-09T04:41:16;30.40;37.10
21171;DHT22;10743;52.160;20.910;2022-09-09T04:43:47;30.50;37.00
21171;DHT22;10743;52.160;20.910;2022-09-09T04:46:15;30.50;38.20
21171;DHT22;10743;52.160;20.910;2022-09-09T04:48:48;30.50;37.30
21171;DHT22;10743;52.160;20.910;2022-09-09T04:51:17;30.50;36.90
21171;DHT22;10743;52.160;20.910;2022-09-09T04:53:46;30.50;37.30
21171;DHT22;10743;52.160;20.910;2022-09-09T04:56:19;30.50;37.30
21171;DHT22;10743;52.160;20.910;2022-09-09T04:58:57;30.40;37.20
21171;DHT22;10743;52.160;20.910;2022-09-09T05:01:35;30.40;37.50
21171;DHT22;10743;52.160;20.910;2022-09-09T05:04:04;30.50;37.50
21171;DHT22;10743;52.160;20.910;2022-09-09T05:06:32;30.50;37.00
21171;DHT22;10743;52.160;20.910;2022-09-09T05:09:00;30.40;37.60
21171;DHT22;10743;52.160;20.910;2022-09-09T05:11:31;30.50;37.50
21171;DHT22;10743;52.160;20.910;2022-09-09T05:14:21;30.50;37.90
21171;DHT22;10743;52.160;20.910;2022-09-09T05:16:49;30.50;37.20
21171;DHT22;10743;52.160;20.910;2022-09-09T05:19:17;30.50;37.30
21171;DHT22;10743;52.160;20.910;2022-09-09T05:21:50;30.50;37.40
21171;DHT22;10743;52.160;20.910;2022-09-09T05:24:22;30.40;37.60
21171;DHT22;10743;52.160;20.910;2022-09-09T05:26:53;30.50;38.20
21171;DHT22;10743;52.160;20.910;2022-09-09T05:29:20;30.50;37.40
21171;DHT22;10743;52.160;20.910;2022-09-09T05:31:48;30.50;37.70
21171;DHT22;10743;52.160;20.910;2022-09-09T05:34:19;30.40;37.50
21171;DHT22;10743;52.160;20.910;2022-09-09T05:36:48;30.40;37.60
21171;DHT22;10743;52.160;20.910;2022-09-09T05:39:15;30.40;37.90
21171;DHT22;10743;52.160;20.910;2022-09-09T05:41:42;30.40;37.70
21171;DHT22;10743;52.160;20.910;2022-09-09T05:44:10;30.40;38.60
21171;DHT22;10743;52.160;20.910;2022-09-09T05:46:38;30.40;38.20
21171;DHT22;10743;52.160;20.910;2022-09-09T05:49:06;30.30;37.80
21171;DHT22;10743;52.160;20.910;2022-09-09T05:51:34;30.40;38.00
21171;DHT22;10743;52.160;20.910;2022-09-09T05:54:08;30.30;37.80
21171;DHT22;10743;52.160;20.910;2022-09-09T05:56:40;30.40;38.00
21171;DHT22;10743;52.160;20.910;2022-09-09T05:59:08;30.30;37.80
21171;DHT22;10743;52.160;20.910;2022-09-09T06:01:36;30.40;38.20
21171;DHT22;10743;52.160;20.910;2022-09-09T06:04:17;30.30;38.10
21171;DHT22;10743;52.160;20.910;2022-09-09T06:06:44;30.30;37.90
21171;DHT22;10743;52.160;20.910;2022-09-09T06:09:15;30.40;38.30
21171;DHT22;10743;52.160;20.910;2022-09-09T06:11:42;30.30;38.40
21171;DHT22;10743;52.160;20.910;2022-09-09T06:14:11;30.30;38.40
21171;DHT22;10743;52.160;20.910;2022-09-09T06:16:39;30.30;38.50
21171;DHT22;10743;52.160;20.910;2022-09-09T06:19:15;30.30;38.50
21171;DHT22;10743;52.160;20.910;2022-09-09T06:21:42;30.30;38.60
21171;DHT22;10743;52.160;20.910;2022-09-09T06:24:12;30.30;38.60
21171;DHT22;10743;52.160;20.910;2022-09-09T06:26:41;30.30;38.70
21171;DHT22;10743;52.160;20.910;2022-09-09T06:29:10;30.30;38.90
21171;DHT22;10743;52.160;20.910;2022-09-09T06:31:39;30.30;38.40
21171;DHT22;10743;52.160;20.910;2022-09-09T06:34:12;30.30;38.70
21171;DHT22;10743;52.160;20.910;2022-09-09T06:36:44;30.30;38.90
21171;DHT22;10743;52.160;20.910;2022-09-09T06:39:12;30.30;38.60
21171;DHT22;10743;52.160;20.910;2022-09-09T06:41:41;30.30;38.90
21171;DHT22;10743;52.160;20.910;2022-09-09T06:44:29;30.30;38.80
21171;DHT22;10743;52.160;20.910;2022-09-09T06:47:01;30.30;39.10
21171;DHT22;10743;52.160;20.910;2022-09-09T06:49:29;30.30;39.00
21171;DHT22;10743;52.160;20.910;2022-09-09T06:51:56;30.30;39.00
21171;DHT22;10743;52.160;20.910;2022-09-09T06:54:24;30.40;38.80
21171;DHT22;10743;52.160;20.910;2022-09-09T06:56:52;30.40;39.00
21171;DHT22;10743;52.160;20.910;2022-09-09T06:59:22;30.30;39.00
21171;DHT22;10743;52.160;20.910;2022-09-09T07:01:52;30.30;38.90
21171;DHT22;10743;52.160;20.910;2022-09-09T07:04:22;30.40;39.20
21171;DHT22;10743;52.160;20.910;2022-09-09T07:06:49;30.40;38.90
21171;DHT22;10743;52.160;20.910;2022-09-09T07:09:23;30.40;39.00
21171;DHT22;10743;52.160;20.910;2022-09-09T07:11:52;30.40;39.10
21171;DHT22;10743;52.160;20.910;2022-09-09T07:14:21;30.40;39.10
21171;DHT22;10743;52.160;20.910;2022-09-09T07:16:56;30.40;39.00
21171;DHT22;10743;52.160;20.910;2022-09-09T07:19:26;30.40;39.10
21171;DHT22;10743;52.160;20.910;2022-09-09T07:21:55;30.40;39.40
21171;DHT22;10743;52.160;20.910;2022-09-09T07:24:23;30.40;39.30
21171;DHT22;10743;52.160;20.910;2022-09-09T07:26:51;30.40;39.30
21171;DHT22;10743;52.160;20.910;2022-09-09T07:29:19;30.40;39.20
21171;DHT22;10743;52.160;20.910;2022-09-09T07:31:48;30.40;39.40
21171;DHT22;10743;52.160;20.910;2022-09-09T07:34:21;30.40;39.00
21171;DHT22;10743;52.160;20.910;2022-09-09T07:36:48;30.40;39.00
21171;DHT22;10743;52.160;20.910;2022-09-09T07:39:17;30.40;39.10
21171;DHT22;10743;52.160;20.910;2022-09-09T07:41:54;30.50;39.10
21171;DHT22;10743;52.160;20.910;2022-09-09T07:44:24;30.50;40.30
21171;DHT22;10743;52.160;20.910;2022-09-09T07:47:02;30.50;39.40
21171;DHT22;10743;52.160;20.910;2022-09-09T07:49:35;30.50;39.70
21171;DHT22;10743;52.160;20.910;2022-09-09T07:52:04;30.60;39.90
21171;DHT22;10743;52.160;20.910;2022-09-09T07:54:32;30.50;39.90
21171;DHT22;10743;52.160;20.910;2022-09-09T07:57:02;30.50;39.60
21171;DHT22;10743;52.160;20.910;2022-09-09T07:59:33;30.50;40.00
21171;DHT22;10743;52.160;20.910;2022-09-09T08:02:01;30.50;39.70
21171;DHT22;10743;52.160;20.910;2022-09-09T08:04:31;30.50;39.90
21171;DHT22;10743;52.160;20.910;2022-09-09T08:07:00;30.50;39.90
21171;DHT22;10743;52.160;20.910;2022-09-09T08:09:36;30.50;39.90
21171;DHT22;10743;52.160;20.910;2022-09-09T08:12:12;30.50;40.00
21171;DHT22;10743;52.160;20.910;2022-09-09T08:14:39;30.50;40.10
21171;DHT22;10743;52.160;20.910;2022-09-09T08:17:06;30.50;39.90
21171;DHT22;10743;52.160;20.910;2022-09-09T08:19:33;30.50;40.10
21171;DHT22;10743;52.160;20.910;2022-09-09T08:22:06;30.50;40.20
21171;DHT22;10743;52.160;20.910;2022-09-09T08:24:35;30.50;40.10
21171;DHT22;10743;52.160;20.910;2022-09-09T08:27:02;30.50;40.00
21171;DHT22;10743;52.160;20.910;2022-09-09T08:29:30;30.50;40.30
21171;DHT22;10743;52.160;20.910;2022-09-09T08:31:57;30.60;40.30
21171;DHT22;10743;52.160;20.910;2022-09-09T08:34:26;30.60;40.50
21171;DHT22;10743;52.160;20.910;2022-09-09T08:36:56;30.60;40.00
21171;DHT22;10743;52.160;20.910;2022-09-09T08:39:30;30.60;40.60
21171;DHT22;10743;52.160;20.910;2022-09-09T08:50:26;30.70;40.60
21171;DHT22;10743;52.160;20.910;2022-09-09T08:53:27;30.70;40.60
21171;DHT22;10743;52.160;20.910;2022-09-09T08:56:02;30.70;40.40
21171;DHT22;10743;52.160;20.910;2022-09-09T08:58:48;30.70;40.50
21171;DHT22;10743;52.160;20.910;2022-09-09T09:04:34;30.70;40.60
21171;DHT22;10743;52.160;20.910;2022-09-09T09:10:33;30.70;40.90
21171;DHT22;10743;52.160;20.910;2022-09-09T09:13:31;30.70;41.00
21171;DHT22;10743;52.160;20.910;2022-09-09T09:16:29;30.70;40.90
21171;DHT22;10743;52.160;20.910;2022-09-09T09:19:01;30.70;41.00
21171;DHT22;10743;52.160;20.910;2022-09-09T09:24:49;30.80;40.70
21171;DHT22;10743;52.160;20.910;2022-09-09T09:30:35;30.90;41.30
21171;DHT22;10743;52.160;20.910;2022-09-09T09:33:36;30.80;40.50
21171;DHT22;10743;52.160;20.910;2022-09-09T09:36:13;30.90;40.70
21171;DHT22;10743;52.160;20.910;2022-09-09T09:39:00;30.80;40.70
21171;DHT22;10743;52.160;20.910;2022-09-09T09:41:48;30.80;40.70
21171;DHT22;10743;52.160;20.910;2022-09-09T09:47:16;30.90;40.20
21171;DHT22;10743;52.160;20.910;2022-09-09T09:49:59;30.90;40.70
21171;DHT22;10743;52.160;20.910;2022-09-09T09:52:35;30.90;40.80
21171;DHT22;10743;52.160;20.910;2022-09-09T09:55:04;30.90;40.80
21171;DHT22;10743;52.160;20.910;2022-09-09T09:57:41;30.90;40.60
21171;DHT22;10743;52.160;20.910;2022-09-09T10:02:52;30.90;41.00
21171;DHT22;10743;52.160;20.910;2022-09-09T10:05:30;30.90;40.90
21171;DHT22;10743;52.160;20.910;2022-09-09T10:10:47;30.90;41.10
21171;DHT22;10743;52.160;20.910;2022-09-09T10:19:19;31.00;41.00
21171;DHT22;10743;52.160;20.910;2022-09-09T10:22:02;31.00;41.00
21171;DHT22;10743;52.160;20.910;2022-09-09T10:24:48;31.00;41.00
21171;DHT22;10743;52.160;20.910;2022-09-09T10:28:14;31.00;41.10
21171;DHT22;10743;52.160;20.910;2022-09-09T10:36:48;31.00;41.10
21171;DHT22;10743;52.160;20.910;2022-09-09T10:42:12;31.10;40.90
21171;DHT22;10743;52.160;20.910;2022-09-09T10:50:24;31.20;41.00
21171;DHT22;10743;52.160;20.910;2022-09-09T10:53:19;31.20;40.90
21171;DHT22;10743;52.160;20.910;2022-09-09T10:55:57;31.20;41.00
21171;DHT22;10743;52.160;20.910;2022-09-09T10:58:35;31.30;41.20
21171;DHT22;10743;52.160;20.910;2022-09-09T11:01:19;31.30;41.20
21171;DHT22;10743;52.160;20.910;2022-09-09T11:03:55;31.30;40.90
21171;DHT22;10743;52.160;20.910;2022-09-09T11:06:30;31.30;40.80
21171;DHT22;10743;52.160;20.910;2022-09-09T11:09:02;31.30;41.00
21171;DHT22;10743;52.160;20.910;2022-09-09T11:11:42;31.20;40.90
21171;DHT22;10743;52.160;20.910;2022-09-09T11:14:32;31.20;40.90
21171;DHT22;10743;52.160;20.910;2022-09-09T11:17:12;31.30;40.90
21171;DHT22;10743;52.160;20.910;2022-09-09T11:19:43;31.30;40.90
21171;DHT22;10743;52.160;20.910;2022-09-09T11:22:31;31.30;40.70
21171;DHT22;10743;52.160;20.910;2022-09-09T11:25:21;31.30;41.10
21171;DHT22;10743;52.160;20.910;2022-09-09T11:31:05;31.40;40.70
21171;DHT22;10743;52.160;20.910;2022-09-09T11:34:16;31.50;41.20
21171;DHT22;10743;52.160;20.910;2022-09-09T11:39:53;31.50;41.10
21171;DHT22;10743;52.160;20.910;2022-09-09T11:42:34;31.50;40.60
21171;DHT22;10743;52.160;20.910;2022-09-09T11:45:23;31.50;41.00
21171;DHT22;10743;52.160;20.910;2022-09-09T11:47:54;31.50;40.80
21171;DHT22;10743;52.160;20.910;2022-09-09T11:52:50;31.50;41.00
21171;DHT22;10743;52.160;20.910;2022-09-09T11:55:29;31.60;40.30
21171;DHT22;10743;52.160;20.910;2022-09-09T12:00:45;31.60;40.70
21171;DHT22;10743;52.160;20.910;2022-09-09T12:03:36;31.70;40.90
21171;DHT22;10743;52.160;20.910;2022-09-09T12:06:19;31.70;40.80
21171;DHT22;10743;52.160;20.910;2022-09-09T12:09:16;31.70;40.50
21171;DHT22;10743;52.160;20.910;2022-09-09T12:11:46;31.60;40.80
21171;DHT22;10743;52.160;20.910;2022-09-09T12:14:36;31.60;41.00
21171;DHT22;10743;52.160;20.910;2022-09-09T12:19:42;31.60;40.90
21171;DHT22;10743;52.160;20.910;2022-09-09T12:25:16;31.50;41.00
21171;DHT22;10743;52.160;20.910;2022-09-09T12:28:15;31.50;41.00
21171;DHT22;10743;52.160;20.910;2022-09-09T12:33:23;31.50;40.80
21171;DHT22;10743;52.160;20.910;2022-09-09T12:35:55;31.50;41.00
21171;DHT22;10743;52.160;20.910;2022-09-09T12:38:36;31.50;41.30
21171;DHT22;10743;52.160;20.910;2022-09-09T12:41:04;31.60;41.40
21171;DHT22;10743;52.160;20.910;2022-09-09T12:43:31;31.60;41.30
21171;DHT22;10743;52.160;20.910;2022-09-09T12:46:08;31.60;41.00
21171;DHT22;10743;52.160;20.910;2022-09-09T12:48:40;31.60;41.20
21171;DHT22;10743;52.160;20.910;2022-09-09T12:51:21;31.60;41.50
21171;DHT22;10743;52.160;20.910;2022-09-09T12:53:59;31.60;41.50
21171;DHT22;10743;52.160;20.910;2022-09-09T12:56:29;31.60;41.50
21171;DHT22;10743;52.160;20.910;2022-09-09T12:58:58;31.60;41.40
21171;DHT22;10743;52.160;20.910;2022-09-09T13:01:31;31.60;41.30
21171;DHT22;10743;52.160;20.910;2022-09-09T13:04:00;31.70;41.00
21171;DHT22;10743;52.160;20.910;2022-09-09T13:06:29;31.70;41.50
21171;DHT22;10743;52.160;20.910;2022-09-09T13:09:01;31.70;41.10
21171;DHT22;10743;52.160;20.910;2022-09-09T13:11:35;31.70;41.50
21171;DHT22;10743;52.160;20.910;2022-09-09T13:14:05;31.70;41.50
21171;DHT22;10743;52.160;20.910;2022-09-09T13:16:34;31.70;41.40
21171;DHT22;10743;52.160;20.910;2022-09-09T13:19:12;31.70;41.10
21171;DHT22;10743;52.160;20.910;2022-09-09T13:21:41;31.70;41.50
21171;DHT22;10743;52.160;20.910;2022-09-09T13:24:32;31.70;41.20
21171;DHT22;10743;52.160;20.910;2022-09-09T13:27:20;31.70;41.50
21171;DHT22;10743;52.160;20.910;2022-09-09T13:29:57;31.80;41.50
21171;DHT22;10743;52.160;20.910;2022-09-09T13:32:26;31.80;41.20
21171;DHT22;10743;52.160;20.910;2022-09-09T13:34:58;31.80;41.40
21171;DHT22;10743;52.160;20.910;2022-09-09T13:37:36;31.80;41.20
21171;DHT22;10743;52.160;20.910;2022-09-09T13:40:05;31.80;41.40
21171;DHT22;10743;52.160;20.910;2022-09-09T13:42:38;31.80;41.10
21171;DHT22;10743;52.160;20.910;2022-09-09T13:45:20;31.80;41.00
21171;DHT22;10743;52.160;20.910;2022-09-09T13:47:49;31.80;40.80
21171;DHT22;10743;52.160;20.910;2022-09-09T13:52:53;31.80;40.80
21171;DHT22;10743;52.160;20.910;2022-09-09T13:55:24;31.80;41.00
21171;DHT22;10743;52.160;20.910;2022-09-09T13:57:56;31.80;40.80
21171;DHT22;10743;52.160;20.910;2022-09-09T14:00:30;31.80;41.00
21171;DHT22;10743;52.160;20.910;2022-09-09T14:02:59;31.80;41.10
21171;DHT22;10743;52.160;20.910;2022-09-09T14:05:33;31.80;41.20
21171;DHT22;10743;52.160;20.910;2022-09-09T14:08:01;31.80;41.10
21171;DHT22;10743;52.160;20.910;2022-09-09T14:10:30;31.70;41.20
21171;DHT22;10743;52.160;20.910;2022-09-09T14:12:57;31.70;40.90
21171;DHT22;10743;52.160;20.910;2022-09-09T14:15:24;31.70;41.30
21171;DHT22;10743;52.160;20.910;2022-09-09T14:17:51;31.70;41.30
21171;DHT22;10743;52.160;20.910;2022-09-09T14:20:18;31.70;41.20
21171;DHT22;10743;52.160;20.910;2022-09-09T14:22:53;31.70;41.30
21171;DHT22;10743;52.160;20.910;2022-09-09T14:25:20;31.70;41.30
21171;DHT22;10743;52.160;20.910;2022-09-09T14:27:47;31.70;40.90
21171;DHT22;10743;52.160;20.910;2022-09-09T14:30:13;31.70;41.30
21171;DHT22;10743;52.160;20.910;2022-09-09T14:32:40;31.70;41.40
21171;DHT22;10743;52.160;20.910;2022-09-09T14:35:08;31.70;41.50
21171;DHT22;10743;52.160;20.910;2022-09-09T14:37:35;31.70;41.30
21171;DHT22;10743;52.160;20.910;2022-09-09T14:40:02;31.70;41.30
21171;DHT22;10743;52.160;20.910;2022-09-09T14:42:29;31.70;41.20
21171;DHT22;10743;52.160;20.910;2022-09-09T14:44:56;31.70;41.10
21171;DHT22;10743;52.160;20.910;2022-09-09T14:47:23;31.80;41.10
21171;DHT22;10743;52.160;20.910;2022-09-09T14:49:50;31.80;41.30
21171;DHT22;10743;52.160;20.910;2022-09-09T14:52:17;31.80;41.00
21171;DHT22;10743;52.160;20.910;2022-09-09T14:54:44;31.70;40.80
21171;DHT22;10743;52.160;20.910;2022-09-09T14:57:11;31.80;41.30
21171;DHT22;10743;52.160;20.910;2022-09-09T14:59:38;31.80;40.90
21171;DHT22;10743;52.160;20.910;2022-09-09T15:02:05;31.80;40.80
21171;DHT22;10743;52.160;20.910;2022-09-09T15:04:32;31.90;41.20
21171;DHT22;10743;52.160;20.910;2022-09-09T15:06:59;31.90;40.70
21171;DHT22;10743;52.160;20.910;2022-09-09T15:09:26;31.80;40.80
21171;DHT22;10743;52.160;20.910;2022-09-09T15:11:53;31.80;40.60
21171;DHT22;10743;52.160;20.910;2022-09-09T15:14:20;31.80;40.60
21171;DHT22;10743;52.160;20.910;2022-09-09T15:16:51;31.80;40.80
21171;DHT22;10743;52.160;20.910;2022-09-09T15:19:18;31.80;40.70
21171;DHT22;10743;52.160;20.910;2022-09-09T15:21:44;31.80;41.00
21171;DHT22;10743;52.160;20.910;2022-09-09T15:24:11;31.80;40.90
21171;DHT22;10743;52.160;20.910;2022-09-09T15:26:40;31.80;40.90
21171;DHT22;10743;52.160;20.910;2022-09-09T15:29:07;31.90;41.00
21171;DHT22;10743;52.160;20.910;2022-09-09T15:31:35;31.80;40.70
21171;DHT22;10743;52.160;20.910;2022-09-09T15:34:06;31.90;40.60
21171;DHT22;10743;52.160;20.910;2022-09-09T15:36:35;31.90;40.80
21171;DHT22;10743;52.160;20.910;2022-09-09T15:39:17;31.90;40.70
21171;DHT22;10743;52.160;20.910;2022-09-09T15:41:48;31.90;40.80
21171;DHT22;10743;52.160;20.910;2022-09-09T15:44:15;31.90;40.90
21171;DHT22;10743;52.160;20.910;2022-09-09T15:46:48;31.90;40.80
21171;DHT22;10743;52.160;20.910;2022-09-09T15:49:22;31.90;40.90
21171;DHT22;10743;52.160;20.910;2022-09-09T15:51:54;31.90;41.00
21171;DHT22;10743;52.160;20.910;2022-09-09T15:54:25;31.80;40.90
21171;DHT22;10743;52.160;20.910;2022-09-09T15:56:54;31.90;40.90
21171;DHT22;10743;52.160;20.910;2022-09-09T15:59:28;31.80;40.90
21171;DHT22;10743;52.160;20.910;2022-09-09T16:01:56;31.80;40.80
21171;DHT22;10743;52.160;20.910;2022-09-09T16:04:24;31.80;40.60
21171;DHT22;10743;52.160;20.910;2022-09-09T16:06:57;31.80;40.50
21171;DHT22;10743;52.160;20.910;2022-09-09T16:09:27;31.80;40.50
21171;DHT22;10743;52.160;20.910;2022-09-09T16:11:59;31.80;40.80
21171;DHT22;10743;52.160;20.910;2022-09-09T16:14:29;31.80;40.50
21171;DHT22;10743;52.160;20.910;2022-09-09T16:17:01;31.80;40.50
21171;DHT22;10743;52.160;20.910;2022-09-09T16:19:28;31.80;40.80
21171;DHT22;10743;52.160;20.910;2022-09-09T16:21:55;31.80;40.80
21171;DHT22;10743;52.160;20.910;2022-09-09T16:24:23;31.80;40.80
21171;DHT22;10743;52.160;20.910;2022-09-09T16:26:53;31.80;40.60
21171;DHT22;10743;52.160;20.910;2022-09-09T16:29:21;31.80;40.50
21171;DHT22;10743;52.160;20.910;2022-09-09T16:31:49;31.80;40.50
21171;DHT22;10743;52.160;20.910;2022-09-09T16:34:17;31.80;40.60
21171;DHT22;10743;52.160;20.910;2022-09-09T16:36:46;31.70;40.40
21171;DHT22;10743;52.160;20.910;2022-09-09T16:39:16;31.70;40.50
21171;DHT22;10743;52.160;20.910;2022-09-09T16:41:46;31.70;40.60
21171;DHT22;10743;52.160;20.910;2022-09-09T16:44:16;31.70;40.60
21171;DHT22;10743;52.160;20.910;2022-09-09T16:46:46;31.70;40.40
21171;DHT22;10743;52.160;20.910;2022-09-09T16:49:15;31.70;40.60
21171;DHT22;10743;52.160;20.910;2022-09-09T16:51:47;31.70;40.40
21171;DHT22;10743;52.160;20.910;2022-09-09T16:54:16;31.70;40.40
21171;DHT22;10743;52.160;20.910;2022-09-09T16:56:46;31.70;40.30
21171;DHT22;10743;52.160;20.910;2022-09-09T16:59:19;31.70;40.30
21171;DHT22;10743;52.160;20.910;2022-09-09T17:01:48;31.70;40.30
21171;DHT22;10743;52.160;20.910;2022-09-09T17:04:18;31.70;40.30
21171;DHT22;10743;52.160;20.910;2022-09-09T17:06:48;31.70;40.50
21171;DHT22;10743;52.160;20.910;2022-09-09T17:09:16;31.70;40.50
21171;DHT22;10743;52.160;20.910;2022-09-09T17:11:44;31.70;40.20
21171;DHT22;10743;52.160;20.910;2022-09-09T17:14:15;31.70;40.50
21171;DHT22;10743;52.160;20.910;2022-09-09T17:16:43;31.70;40.60
21171;DHT22;10743;52.160;20.910;2022-09-09T17:19:11;31.60;40.40
21171;DHT22;10743;52.160;20.910;2022-09-09T17:21:39;31.60;40.60